createdAt,value
2022-08-20T00:02:15.694Z,72.42
2022-08-20T00:04:44.761Z,72.26
2022-08-20T00:07:14.446Z,72.19
2022-08-20T00:09:43.115Z,71.98
2022-08-20T00:12:13.188Z,72.06
2022-08-20T00:14:41.370Z,72.05
2022-08-20T00:17:09.690Z,72.16
2022-08-20T00:19:38.019Z,72.14
2022-08-20T00:22:06.207Z,72.06
2022-08-20T00:24:34.927Z,72.11
2022-08-20T00:27:03.029Z,72.13
2022-08-20T00:29:31.704Z,72.43
2022-08-20T00:32:00.998Z,72.31
2022-08-20T00:34:29.319Z,72.32
2022-08-20T00:36:57.577Z,72.27
2022-08-20T00:39:25.796Z,72.22
2022-08-20T00:41:53.844Z,72.21
2022-08-20T00:44:23.313Z,72.08
2022-08-20T00:46:52.972Z,72.08
2022-08-20T00:49:28.036Z,72.13
2022-08-20T00:52:08.079Z,71.96
2022-08-20T00:54:51.934Z,72.19
2022-08-20T00:57:26.072Z,72.20
2022-08-20T00:59:54.280Z,72.13
2022-08-20T01:02:25.461Z,72.14
2022-08-20T01:04:57.659Z,72.29
2022-08-20T01:07:32.701Z,72.49
2022-08-20T01:10:04.672Z,72.58
2022-08-20T01:12:33.042Z,72.54
2022-08-20T01:15:03.758Z,72.46
2022-08-20T01:17:36.451Z,72.69
2022-08-20T01:20:23.000Z,72.89
2022-08-20T01:23:20.162Z,73.03
2022-08-20T01:25:48.117Z,72.96
2022-08-20T01:28:20.303Z,73.42
2022-08-20T01:30:48.421Z,73.49
2022-08-20T01:33:18.575Z,73.64
2022-08-20T01:35:46.832Z,73.63
2022-08-20T01:38:14.964Z,73.75
2022-08-20T01:41:04.537Z,73.81
2022-08-20T01:43:36.458Z,73.70
2022-08-20T01:46:05.526Z,73.76
2022-08-20T01:48:33.988Z,73.80
2022-08-20T01:51:13.817Z,73.78
2022-08-20T01:53:45.644Z,73.68
2022-08-20T01:56:18.591Z,73.69
2022-08-20T01:58:55.851Z,73.86
2022-08-20T02:01:30.108Z,73.91
2022-08-20T02:03:58.339Z,73.88
2022-08-20T02:06:27.900Z,73.98
2022-08-20T02:09:01.319Z,73.94
2022-08-20T02:11:31.657Z,73.98
2022-08-20T02:13:59.871Z,74.03
2022-08-20T02:16:34.556Z,74.09
2022-08-20T02:19:10.035Z,74.09
2022-08-20T02:21:44.649Z,74.18
2022-08-20T02:24:13.257Z,74.10
2022-08-20T02:26:41.593Z,74.19
2022-08-20T02:29:11.880Z,74.24
2022-08-20T02:31:43.573Z,74.26
2022-08-20T02:34:30.131Z,74.20
2022-08-20T02:36:58.307Z,74.31
2022-08-20T02:39:27.009Z,74.20
2022-08-20T02:41:55.164Z,74.23
2022-08-20T02:44:23.421Z,74.26
2022-08-20T02:46:51.515Z,74.36
2022-08-20T02:49:20.629Z,74.46
2022-08-20T02:51:48.773Z,74.39
2022-08-20T02:54:17.448Z,74.72
2022-08-20T02:56:45.836Z,74.71
2022-08-20T02:59:19.068Z,74.77
2022-08-20T03:02:00.278Z,74.73
2022-08-20T03:04:30.041Z,74.88
2022-08-20T03:06:59.180Z,74.77
2022-08-20T03:09:27.628Z,74.98
2022-08-20T03:11:55.782Z,74.91
2022-08-20T03:14:24.519Z,74.81
2022-08-20T03:16:52.685Z,74.76
2022-08-20T03:19:21.572Z,74.94
2022-08-20T03:21:50.291Z,75.18
2022-08-20T03:24:19.088Z,75.37
2022-08-20T03:26:47.486Z,75.28
2022-08-20T03:29:15.643Z,75.47
2022-08-20T03:31:43.713Z,75.44
2022-08-20T03:34:12.037Z,75.23
2022-08-20T03:36:40.230Z,75.20
2022-08-20T03:39:13.464Z,75.21
2022-08-20T03:41:41.777Z,75.12
2022-08-20T03:44:10.358Z,75.00
2022-08-20T03:46:39.603Z,74.93
2022-08-20T03:49:08.125Z,74.84
2022-08-20T03:51:51.484Z,74.85
2022-08-20T03:54:24.723Z,74.73
2022-08-20T03:57:03.016Z,74.78
2022-08-20T03:59:41.634Z,74.75
2022-08-20T04:02:11.165Z,74.57
2022-08-20T04:04:40.848Z,74.54
2022-08-20T04:07:15.979Z,74.40
2022-08-20T04:09:44.103Z,74.36
2022-08-20T04:12:15.009Z,74.37
2022-08-20T04:14:43.299Z,74.43
2022-08-20T04:17:14.347Z,74.39
2022-08-20T04:19:42.711Z,74.32
2022-08-20T04:22:14.130Z,74.42
2022-08-20T04:24:43.339Z,74.42
2022-08-20T04:27:12.314Z,74.49
2022-08-20T04:29:43.585Z,74.61
2022-08-20T04:32:12.358Z,74.65
2022-08-20T04:34:40.734Z,74.66
2022-08-20T04:37:17.014Z,74.67
2022-08-20T04:39:45.881Z,74.70
2022-08-20T04:42:14.490Z,74.73
2022-08-20T04:44:42.579Z,74.78
2022-08-20T04:47:10.687Z,74.89
2022-08-20T04:49:39.027Z,74.91
2022-08-20T04:52:07.167Z,74.91
2022-08-20T04:54:35.799Z,75.17
2022-08-20T04:57:04.135Z,75.23
2022-08-20T04:59:32.365Z,75.36
2022-08-20T05:02:00.663Z,75.49
2022-08-20T05:04:28.823Z,75.66
2022-08-20T05:06:56.966Z,75.67
2022-08-20T05:09:25.344Z,75.67
2022-08-20T05:11:53.471Z,75.65
2022-08-20T05:14:21.642Z,75.77
2022-08-20T05:16:50.944Z,75.76
2022-08-20T05:19:19.256Z,75.69
2022-08-20T05:21:47.877Z,75.67
2022-08-20T05:24:18.946Z,75.61
2022-08-20T05:26:47.631Z,75.58
2022-08-20T05:29:16.035Z,75.50
2022-08-20T05:31:44.873Z,75.31
2022-08-20T05:34:13.864Z,75.04
2022-08-20T05:36:45.432Z,74.69
2022-08-20T05:39:16.087Z,74.28
2022-08-20T05:41:44.206Z,73.94
2022-08-20T05:44:16.126Z,73.53
2022-08-20T05:46:45.994Z,72.99
2022-08-20T05:49:20.295Z,72.86
2022-08-20T05:51:51.109Z,72.85
2022-08-20T05:54:19.608Z,72.82
2022-08-20T05:56:47.882Z,72.71
2022-08-20T05:59:17.082Z,72.22
2022-08-20T06:01:47.138Z,71.97
2022-08-20T06:04:34.354Z,72.06
2022-08-20T06:07:06.450Z,72.26
2022-08-20T06:09:36.280Z,71.88
2022-08-20T06:12:06.702Z,71.90
2022-08-20T06:14:35.065Z,71.90
2022-08-20T06:17:13.688Z,71.46
2022-08-20T06:19:45.745Z,71.48
2022-08-20T06:22:18.544Z,71.33
2022-08-20T06:24:53.399Z,71.30
2022-08-20T06:27:22.109Z,71.34
2022-08-20T06:29:51.015Z,71.20
2022-08-20T06:32:31.763Z,71.04
2022-08-20T06:35:03.997Z,70.87
2022-08-20T06:37:36.815Z,70.60
2022-08-20T06:40:10.992Z,70.71
2022-08-20T06:42:45.731Z,70.68
2022-08-20T06:45:20.409Z,70.67
2022-08-20T06:47:48.796Z,70.45
2022-08-20T06:50:32.617Z,70.55
2022-08-20T06:53:00.866Z,70.71
2022-08-20T06:55:30.666Z,70.64
2022-08-20T06:58:01.527Z,70.51
2022-08-20T07:00:32.335Z,70.41
2022-08-20T07:03:01.766Z,70.22
2022-08-20T07:05:32.594Z,70.31
2022-08-20T07:08:01.195Z,70.14
2022-08-20T07:10:30.318Z,69.86
2022-08-20T07:13:00.272Z,69.80
2022-08-20T07:15:28.870Z,69.71
2022-08-20T07:18:01.342Z,69.77
2022-08-20T07:20:31.998Z,69.62
2022-08-20T07:23:00.955Z,69.52
2022-08-20T07:25:30.864Z,69.46
2022-08-20T07:28:09.822Z,69.39
2022-08-20T07:30:57.810Z,69.52
2022-08-20T07:33:30.540Z,69.53
2022-08-20T07:36:00.333Z,69.48
2022-08-20T07:38:30.676Z,69.39
2022-08-20T07:41:13.422Z,69.11
2022-08-20T07:43:45.855Z,69.01
2022-08-20T07:46:20.594Z,69.00
2022-08-20T07:48:51.386Z,68.93
2022-08-20T07:51:22.363Z,68.62
2022-08-20T07:53:52.035Z,68.42
2022-08-20T07:56:24.614Z,68.36
2022-08-20T07:58:56.426Z,68.46
2022-08-20T08:01:28.761Z,68.26
2022-08-20T08:03:59.134Z,67.82
2022-08-20T08:06:31.430Z,67.80
2022-08-20T08:09:04.907Z,67.51
2022-08-20T08:11:37.883Z,67.56
2022-08-20T08:14:10.153Z,67.55
2022-08-20T08:16:39.510Z,67.52
2022-08-20T08:19:11.964Z,67.07
2022-08-20T08:21:41.467Z,66.97
2022-08-20T08:24:11.717Z,66.26
2022-08-20T08:26:42.329Z,66.26
2022-08-20T08:29:12.233Z,65.97
2022-08-20T08:31:41.341Z,65.07
2022-08-20T08:34:09.652Z,64.45
2022-08-20T08:36:39.324Z,64.69
2022-08-20T08:39:07.568Z,64.43
2022-08-20T08:41:40.605Z,63.90
2022-08-20T08:44:21.872Z,63.21
2022-08-20T08:46:56.303Z,62.85
2022-08-20T08:49:37.761Z,61.91
2022-08-20T08:52:16.585Z,62.06
2022-08-20T08:54:49.065Z,59.96
2022-08-20T08:57:18.716Z,59.95
2022-08-20T09:00:04.055Z,60.39
2022-08-20T09:02:33.576Z,59.63
2022-08-20T09:05:13.479Z,59.96
2022-08-20T09:07:45.149Z,59.96
2022-08-20T09:10:13.326Z,58.90
2022-08-20T09:12:47.128Z,58.90
2022-08-20T09:15:16.776Z,58.29
2022-08-20T09:17:44.988Z,57.07
2022-08-20T09:20:13.764Z,57.23
2022-08-20T09:22:41.996Z,56.55
2022-08-20T09:25:10.447Z,57.15
2022-08-20T09:27:38.859Z,55.84
2022-08-20T09:30:10.379Z,56.74
2022-08-20T09:32:38.792Z,57.07
2022-08-20T09:35:09.436Z,57.05
2022-08-20T09:37:38.124Z,56.49
2022-08-20T09:40:08.963Z,56.27
2022-08-20T09:42:41.245Z,56.81
2022-08-20T09:45:11.497Z,56.30
2022-08-20T09:47:53.020Z,56.71
2022-08-20T09:50:25.263Z,57.30
2022-08-20T09:52:55.478Z,57.36
2022-08-20T09:55:32.348Z,57.03
2022-08-20T09:58:03.505Z,56.82
2022-08-20T10:00:31.751Z,56.89
2022-08-20T10:03:01.609Z,56.55
2022-08-20T10:05:30.311Z,56.46
2022-08-20T10:07:58.825Z,56.23
2022-08-20T10:10:27.093Z,55.42
2022-08-20T10:12:55.300Z,55.24
2022-08-20T10:15:23.644Z,54.69
2022-08-20T10:17:51.785Z,53.91
2022-08-20T10:20:20.650Z,53.82
2022-08-20T10:22:48.885Z,53.09
2022-08-20T10:25:17.979Z,52.92
2022-08-20T10:27:46.210Z,52.19
2022-08-20T10:30:14.751Z,51.75
2022-08-20T10:32:42.939Z,52.29
2022-08-20T10:35:11.122Z,51.37
2022-08-20T10:37:39.418Z,51.25
2022-08-20T10:40:08.748Z,51.36
2022-08-20T10:42:41.827Z,50.83
2022-08-20T10:45:13.373Z,49.85
2022-08-20T10:47:42.225Z,50.48
2022-08-20T10:50:13.831Z,50.31
2022-08-20T10:52:42.193Z,50.60
2022-08-20T10:55:10.957Z,49.95
2022-08-20T10:57:41.741Z,49.27
2022-08-20T11:00:15.065Z,48.33
2022-08-20T11:02:43.243Z,49.94
2022-08-20T11:05:11.550Z,50.08
2022-08-20T11:07:55.643Z,49.44
2022-08-20T11:10:30.260Z,48.99
2022-08-20T11:12:58.438Z,49.18
2022-08-20T11:15:26.787Z,49.26
2022-08-20T11:17:56.659Z,49.66
2022-08-20T11:20:26.440Z,48.95
2022-08-20T11:22:55.405Z,49.09
2022-08-20T11:25:25.027Z,48.93
2022-08-20T11:27:54.852Z,48.81
2022-08-20T11:30:29.379Z,49.04
2022-08-20T11:32:59.408Z,48.86
2022-08-20T11:35:48.939Z,48.74
2022-08-20T11:38:19.238Z,48.91
2022-08-20T11:40:47.471Z,48.59
2022-08-20T11:43:17.544Z,48.39
2022-08-20T11:45:49.766Z,48.25
2022-08-20T11:48:18.358Z,47.51
2022-08-20T11:50:48.085Z,47.36
2022-08-20T11:53:17.056Z,47.15
2022-08-20T11:55:45.418Z,47.07
2022-08-20T11:58:13.914Z,46.62
2022-08-20T12:00:42.165Z,47.06
2022-08-20T12:03:11.915Z,46.62
2022-08-20T12:05:42.890Z,46.96
2022-08-20T12:08:25.252Z,46.60
2022-08-20T12:11:01.569Z,47.05
2022-08-20T12:13:48.005Z,47.16
2022-08-20T12:16:20.409Z,47.41
2022-08-20T12:18:48.776Z,47.38
2022-08-20T12:21:17.411Z,47.54
2022-08-20T12:23:46.017Z,47.72
2022-08-20T12:26:16.818Z,47.42
2022-08-20T12:28:45.051Z,46.80
2022-08-20T12:31:13.196Z,47.06
2022-08-20T12:33:41.493Z,46.85
2022-08-20T12:36:09.652Z,46.71
2022-08-20T12:38:37.767Z,46.76
2022-08-20T12:41:06.683Z,46.48
2022-08-20T12:43:34.842Z,46.35
2022-08-20T12:46:03.536Z,46.84
2022-08-20T12:48:31.760Z,46.92
2022-08-20T12:50:59.852Z,47.09
2022-08-20T12:53:27.946Z,47.49
2022-08-20T12:55:56.216Z,47.37
2022-08-20T12:58:24.780Z,47.51
2022-08-20T13:00:53.034Z,47.80
2022-08-20T13:03:21.187Z,48.06
2022-08-20T13:05:51.187Z,48.13
2022-08-20T13:08:19.782Z,48.48
2022-08-20T13:10:48.288Z,48.63
2022-08-20T13:13:20.407Z,49.05
2022-08-20T13:15:51.552Z,49.21
2022-08-20T13:18:20.559Z,49.55
2022-08-20T13:20:51.693Z,49.67
2022-08-20T13:23:19.851Z,49.84
2022-08-20T13:25:48.034Z,50.01
2022-08-20T13:28:16.090Z,50.13
2022-08-20T13:30:44.250Z,50.27
2022-08-20T13:33:12.448Z,50.34
2022-08-20T13:35:40.773Z,50.93
2022-08-20T13:38:08.902Z,50.90
2022-08-20T13:40:36.972Z,51.09
2022-08-20T13:43:07.378Z,51.43
2022-08-20T13:45:39.286Z,51.77
2022-08-20T13:48:09.927Z,52.28
2022-08-20T13:50:46.983Z,52.28
2022-08-20T13:53:17.144Z,54.05
2022-08-20T13:55:45.700Z,55.81
2022-08-20T13:58:14.014Z,57.41
2022-08-20T14:00:42.167Z,58.49
2022-08-20T14:03:11.367Z,59.45
2022-08-20T14:05:39.889Z,61.11
2022-08-20T14:08:14.498Z,61.43
2022-08-20T14:10:43.677Z,61.77
2022-08-20T14:13:15.325Z,61.57
2022-08-20T14:15:45.926Z,61.68
2022-08-20T14:18:15.018Z,62.82
2022-08-20T14:20:45.556Z,62.72
2022-08-20T14:23:15.369Z,63.01
2022-08-20T14:25:47.015Z,63.31
2022-08-20T14:28:18.729Z,63.42
2022-08-20T14:30:52.915Z,63.52
2022-08-20T14:33:23.964Z,63.93
2022-08-20T14:35:53.139Z,64.16
2022-08-20T14:38:21.678Z,64.23
2022-08-20T14:40:50.622Z,64.99
2022-08-20T14:43:19.511Z,65.60
2022-08-20T14:45:47.741Z,65.83
2022-08-20T14:48:15.912Z,66.22
2022-08-20T14:50:44.171Z,66.31
2022-08-20T14:53:12.481Z,66.21
2022-08-20T14:55:40.670Z,66.26
2022-08-20T14:58:13.687Z,66.62
2022-08-20T15:00:43.640Z,66.77
2022-08-20T15:03:13.540Z,66.85
2022-08-20T15:05:42.657Z,67.07
2022-08-20T15:08:12.388Z,67.22
2022-08-20T15:10:42.745Z,67.46
2022-08-20T15:13:10.892Z,67.68
2022-08-20T15:15:40.569Z,67.88
2022-08-20T15:18:09.102Z,67.95
2022-08-20T15:20:37.783Z,67.95
2022-08-20T15:23:07.711Z,68.04
2022-08-20T15:25:37.950Z,68.31
2022-08-20T15:28:10.400Z,68.15
2022-08-20T15:30:41.688Z,68.33
2022-08-20T15:33:11.192Z,68.37
2022-08-20T15:35:39.815Z,68.31
2022-08-20T15:38:08.490Z,68.40
2022-08-20T15:40:36.846Z,68.47
2022-08-20T15:43:06.089Z,68.41
2022-08-20T15:45:36.267Z,68.49
2022-08-20T15:48:17.472Z,68.51
2022-08-20T15:50:48.657Z,68.47
2022-08-20T15:53:26.099Z,68.59
2022-08-20T15:56:12.381Z,68.73
2022-08-20T15:59:01.473Z,68.67
2022-08-20T16:01:56.507Z,68.76
2022-08-20T16:04:49.143Z,68.87
2022-08-20T16:07:24.396Z,68.97
2022-08-20T16:09:55.862Z,69.01
2022-08-20T16:12:38.961Z,68.86
2022-08-20T16:15:17.713Z,69.05
2022-08-20T16:18:17.242Z,69.02
2022-08-20T16:20:48.807Z,69.08
2022-08-20T16:23:20.287Z,69.19
2022-08-20T16:26:07.035Z,69.44
2022-08-20T16:29:11.485Z,69.40
2022-08-20T16:32:03.247Z,69.48
2022-08-20T16:34:34.743Z,69.70
2022-08-20T16:37:44.094Z,70.01
2022-08-20T16:40:51.164Z,70.10
2022-08-20T16:43:25.937Z,70.19
2022-08-20T16:46:15.458Z,70.23
2022-08-20T16:48:55.700Z,70.32
2022-08-20T16:51:51.683Z,70.55
2022-08-20T16:54:28.537Z,70.95
2022-08-20T16:57:03.542Z,71.14
2022-08-20T16:59:33.497Z,71.41
2022-08-20T17:02:10.214Z,71.51
2022-08-20T17:04:59.544Z,71.53
2022-08-20T17:07:51.433Z,71.65
2022-08-20T17:10:26.821Z,71.84
2022-08-20T17:13:20.701Z,72.06
2022-08-20T17:16:01.051Z,72.21
2022-08-20T17:18:40.144Z,72.20
2022-08-20T17:21:29.386Z,72.36
2022-08-20T17:24:03.439Z,72.30
2022-08-20T17:26:36.002Z,72.33
2022-08-20T17:29:14.835Z,72.43
2022-08-20T17:31:48.126Z,72.60
2022-08-20T17:34:23.317Z,72.83
2022-08-20T17:37:08.618Z,72.80
2022-08-20T17:39:46.401Z,72.74
2022-08-20T17:42:19.736Z,72.71
2022-08-20T17:44:52.362Z,72.73
2022-08-20T17:47:31.442Z,72.88
2022-08-20T17:50:24.937Z,72.87
2022-08-20T17:53:02.599Z,72.90
2022-08-20T17:55:35.476Z,73.02
2022-08-20T17:58:08.281Z,73.18
2022-08-20T18:00:36.502Z,73.39
2022-08-20T18:03:13.599Z,73.42
2022-08-20T18:05:44.031Z,73.47
2022-08-20T18:08:34.096Z,73.52
2022-08-20T18:11:27.287Z,73.70
2022-08-20T18:14:00.693Z,73.80
2022-08-20T18:16:33.434Z,73.95
2022-08-20T18:19:47.466Z,74.08
2022-08-20T18:22:24.016Z,74.19
2022-08-20T18:25:29.970Z,74.68
2022-08-20T18:28:07.857Z,74.75
2022-08-20T18:30:51.177Z,74.74
2022-08-20T18:33:38.655Z,75.01
2022-08-20T18:36:09.596Z,75.33
2022-08-20T18:38:42.169Z,75.26
2022-08-20T18:41:14.918Z,75.36
2022-08-20T18:43:43.634Z,75.51
2022-08-20T18:46:23.622Z,75.84
2022-08-20T18:48:58.598Z,75.45
2022-08-20T18:51:39.756Z,75.43
2022-08-20T18:54:08.519Z,75.19
2022-08-20T18:56:40.658Z,75.25
2022-08-20T18:59:20.362Z,75.10
2022-08-20T19:01:49.663Z,75.15
2022-08-20T19:04:32.115Z,75.18
2022-08-20T19:07:06.125Z,75.23
2022-08-20T19:09:52.991Z,75.23
2022-08-20T19:12:41.447Z,75.27
2022-08-20T19:15:16.498Z,75.09
2022-08-20T19:18:07.394Z,75.15
2022-08-20T19:20:39.371Z,75.05
2022-08-20T19:23:15.028Z,75.08
2022-08-20T19:26:00.287Z,75.07
2022-08-20T19:28:55.722Z,75.11
2022-08-20T19:31:30.469Z,75.28
2022-08-20T19:34:07.277Z,75.16
2022-08-20T19:37:35.086Z,75.21
2022-08-20T19:40:21.833Z,75.52
2022-08-20T19:42:54.064Z,75.57
2022-08-20T19:45:26.810Z,75.67
2022-08-20T19:47:57.786Z,75.90
2022-08-20T19:50:38.043Z,77.02
2022-08-20T19:53:30.241Z,77.49
2022-08-20T19:55:59.378Z,77.50
2022-08-20T19:58:28.711Z,77.66
2022-08-20T20:00:58.237Z,77.62
2022-08-20T20:03:40.542Z,77.96
2022-08-20T20:06:20.470Z,78.36
2022-08-20T20:08:57.717Z,78.69
2022-08-20T20:11:37.481Z,79.32
2022-08-20T20:14:13.337Z,78.99
2022-08-20T20:16:42.505Z,79.12
2022-08-20T20:19:28.462Z,79.13
2022-08-20T20:22:17.344Z,79.68
2022-08-20T20:24:58.018Z,80.18
2022-08-20T20:27:28.794Z,80.07
2022-08-20T20:30:03.025Z,79.64
2022-08-20T20:32:33.946Z,80.33
2022-08-20T20:35:06.033Z,80.92
2022-08-20T20:37:49.903Z,80.50
2022-08-20T20:40:33.935Z,80.90
2022-08-20T20:43:07.885Z,80.93
2022-08-20T20:45:54.532Z,81.32
2022-08-20T20:48:26.794Z,81.21
2022-08-20T20:51:12.084Z,81.31
2022-08-20T20:53:53.121Z,80.75
2022-08-20T20:56:42.458Z,81.07
2022-08-20T20:59:11.386Z,82.11
2022-08-20T21:01:49.815Z,82.11
2022-08-20T21:04:23.912Z,81.62
2022-08-20T21:06:59.605Z,81.92
2022-08-20T21:09:27.611Z,82.51
2022-08-20T21:11:55.759Z,82.18
2022-08-20T21:14:23.945Z,82.47
2022-08-20T21:16:53.573Z,81.86
2022-08-20T21:19:21.898Z,82.10
2022-08-20T21:21:50.241Z,82.15
2022-08-20T21:24:18.906Z,82.20
2022-08-20T21:26:48.180Z,81.77
2022-08-20T21:29:21.397Z,81.98
2022-08-20T21:31:49.633Z,81.77
2022-08-20T21:34:18.897Z,82.00
2022-08-20T21:36:47.373Z,82.17
2022-08-20T21:39:16.269Z,81.89
2022-08-20T21:41:45.511Z,81.62
2022-08-20T21:44:26.050Z,81.79
2022-08-20T21:46:56.968Z,81.57
2022-08-20T21:49:27.348Z,81.37
2022-08-20T21:51:56.824Z,81.54
2022-08-20T21:54:25.816Z,81.46
2022-08-20T21:57:08.374Z,81.08
2022-08-20T21:59:38.835Z,81.28
2022-08-20T22:02:07.177Z,81.22
2022-08-20T22:04:35.761Z,81.17
2022-08-20T22:07:04.699Z,80.96
2022-08-20T22:09:36.129Z,81.07
2022-08-20T22:12:06.303Z,80.89
2022-08-20T22:14:34.950Z,81.04
2022-08-20T22:17:03.119Z,80.86
2022-08-20T22:19:31.289Z,81.11
2022-08-20T22:21:59.523Z,81.20
2022-08-20T22:24:29.307Z,81.21
2022-08-20T22:26:58.302Z,81.04
2022-08-20T22:29:27.253Z,81.15
2022-08-20T22:31:55.606Z,81.25
2022-08-20T22:34:23.833Z,81.91
2022-08-20T22:36:54.668Z,81.79
2022-08-20T22:39:22.821Z,81.76
2022-08-20T22:41:51.016Z,81.75
2022-08-20T22:44:19.331Z,81.94
2022-08-20T22:46:50.586Z,82.01
2022-08-20T22:49:27.074Z,81.84
2022-08-20T22:51:55.375Z,82.38
2022-08-20T22:54:25.407Z,82.19
2022-08-20T22:56:55.037Z,82.14
2022-08-20T22:59:23.756Z,82.18
2022-08-20T23:01:53.460Z,82.48
2022-08-20T23:04:30.195Z,82.41
2022-08-20T23:06:59.586Z,82.10
2022-08-20T23:09:28.298Z,82.24
2022-08-20T23:11:58.881Z,82.48
2022-08-20T23:14:27.343Z,82.38
2022-08-20T23:17:03.665Z,82.26
2022-08-20T23:19:32.991Z,82.07
2022-08-20T23:22:01.072Z,82.24
2022-08-20T23:24:29.237Z,82.01
2022-08-20T23:26:57.433Z,82.15
2022-08-20T23:29:26.823Z,82.34
2022-08-20T23:31:56.929Z,82.08
2022-08-20T23:34:26.486Z,81.89
2022-08-20T23:36:57.884Z,81.90
2022-08-20T23:39:28.178Z,81.78
2022-08-20T23:41:56.355Z,81.50
2022-08-20T23:44:26.052Z,81.67
2022-08-20T23:47:02.254Z,81.52
2022-08-20T23:49:31.824Z,81.48
2022-08-20T23:52:00.929Z,81.68
2022-08-20T23:54:31.228Z,81.60
2022-08-20T23:56:59.552Z,81.55
2022-08-20T23:59:27.963Z,81.74
